Time;durP1;ratioP1;P1;durP2;ratioP2;P2;SDS_P1;SDS_P2;PMS_P1;PMS_P2;Temp;Humidity;BMP_temperature;BMP_pressure;BME280_temperature;BME280_humidity;BME280_pressure;Samples;Min_cycle;Max_cycle;Signal;HPM_P1;HPM_P2
2021/11/17 02:27:18;;;;;;;9.10;8.20;;;;;21.10;100864.00;;;;2058722;28;21937;-67
2021/11/17 02:28:33;;;;;;;9.52;8.63;;;;;21.10;100868.00;;;;2055712;28;20219;-67
2021/11/17 02:29:55;;;;;;;9.55;8.38;;;;;21.00;100859.00;;;;2052594;28;20274;-67
2021/11/17 02:31:24;;;;;;;9.82;8.82;;;;;21.00;100860.00;;;;2055048;28;20215;-68
2021/11/17 02:32:36;;;;;;;8.98;7.97;;;;;21.00;100865.00;;;;2055612;28;20215;-67
2021/11/17 02:33:46;;;;;;;8.88;7.95;;;;;21.10;100850.00;;;;2054167;28;20207;-67
2021/11/17 02:35:07;;;;;;;9.82;8.77;;;;;21.10;100858.00;;;;2052901;28;20581;-67
2021/11/17 02:36:10;;;;;;;9.60;8.60;;;;;21.00;100854.00;;;;2052116;28;20224;-68
2021/11/17 02:37:10;;;;;;;10.00;9.00;;;;;21.00;100855.00;;;;2052638;28;20330;-68
2021/11/17 02:38:20;;;;;;;8.63;7.83;;;;;21.00;100860.00;;;;2052960;28;20220;-68
2021/11/17 02:39:20;;;;;;;8.68;7.82;;;;;21.10;100862.00;;;;2052839;28;20298;-68
2021/11/17 02:40:20;;;;;;;8.70;7.80;;;;;21.10;100861.00;;;;2053051;28;20563;-69
2021/11/17 02:41:21;;;;;;;9.87;8.90;;;;;21.10;100862.00;;;;2053025;28;20270;-68
2021/11/17 02:42:44;;;;;;;10.20;8.53;;;;;21.00;100866.00;;;;2052736;28;20215;-68
2021/11/17 02:43:56;;;;;;;9.35;8.35;;;;;21.00;100863.00;;;;2052587;28;20476;-69
2021/11/17 02:44:59;;;;;;;8.80;7.90;;;;;21.10;100859.00;;;;2052725;28;20246;-68
2021/11/17 02:46:24;;;;;;;9.90;8.90;;;;;21.00;100863.00;;;;2053153;28;20242;-68
2021/11/17 02:47:37;;;;;;;8.95;8.05;;;;;21.00;100858.00;;;;2055229;28;20737;-68
2021/11/17 02:48:50;;;;;;;9.60;8.60;;;;;21.00;100851.00;;;;2056167;28;20239;-68
2021/11/17 02:50:11;;;;;;;10.13;9.10;;;;;21.10;100854.00;;;;2060040;28;20653;-68
2021/11/17 02:51:12;;;;;;;10.70;9.27;;;;;21.00;100855.00;;;;2057748;28;20625;-68
2021/11/17 02:52:18;;;;;;;9.90;8.90;;;;;21.10;100849.00;;;;2052711;28;20226;-68
2021/11/17 02:53:32;;;;;;;9.43;8.43;;;;;21.00;100850.00;;;;2052250;28;20219;-68
2021/11/17 02:54:38;;;;;;;9.20;8.30;;;;;21.00;100850.00;;;;2052809;28;20244;-68
2021/11/17 02:55:57;;;;;;;9.43;8.52;;;;;21.00;100852.00;;;;2052632;28;20212;-68
2021/11/17 02:57:19;;;;;;;10.00;9.00;;;;;21.00;100846.00;;;;2052218;28;20617;-68
2021/11/17 02:58:26;;;;;;;8.65;7.80;;;;;20.80;100850.00;;;;2052429;28;20714;-68
2021/11/17 02:59:29;;;;;;;10.25;9.00;;;;;21.00;100850.00;;;;2051643;28;20216;-68
2021/11/17 03:00:59;;;;;;;10.00;8.80;;;;;21.00;100847.00;;;;2055115;28;20574;-68
2021/11/17 03:02:11;;;;;;;8.82;7.93;;;;;21.00;100845.00;;;;2055559;28;20207;-68
2021/11/17 03:03:14;;;;;;;9.65;8.75;;;;;21.00;100852.00;;;;2054300;28;20315;-67
2021/11/17 03:04:14;;;;;;;9.93;8.93;;;;;21.00;100850.00;;;;2053450;28;20224;-67
2021/11/17 03:05:18;;;;;;;10.17;9.17;;;;;21.00;100852.00;;;;2053471;28;20220;-67
2021/11/17 03:06:41;;;;;;;9.80;8.80;;;;;21.00;100846.00;;;;2054120;28;20721;-67
2021/11/17 03:08:20;;;;;;;9.15;8.25;;;;;21.00;100852.00;;;;2013032;29;20306;-67
2021/11/17 03:09:29;;;;;;;9.43;8.52;;;;;21.00;100850.00;;;;2023903;28;20813;-68
2021/11/17 03:11:06;;;;;;;10.27;9.30;;;;;21.00;100846.00;;;;2051870;28;20330;-68
2021/11/17 03:12:27;;;;;;;12.23;8.80;;;;;21.00;100837.00;;;;2051864;28;20211;-68
2021/11/17 03:13:40;;;;;;;10.43;9.32;;;;;21.00;100843.00;;;;2053259;28;20741;-68
2021/11/17 03:14:52;;;;;;;10.50;9.40;;;;;21.00;100844.00;;;;2051628;28;20220;-67
2021/11/17 03:16:23;;;;;;;9.38;8.32;;;;;21.00;100847.00;;;;2053423;28;20224;-67
2021/11/17 03:18:05;;;;;;;10.20;9.20;;;;;21.00;100849.00;;;;2051685;28;20220;-67
2021/11/17 03:19:21;;;;;;;9.82;8.82;;;;;20.90;100850.00;;;;2050446;28;20221;-68
2021/11/17 03:20:30;;;;;;;10.15;9.10;;;;;20.90;100856.00;;;;2052680;28;20805;-68
2021/11/17 03:21:49;;;;;;;10.32;9.23;;;;;20.90;100853.00;;;;2052578;28;20223;-68
2021/11/17 03:23:11;;;;;;;10.38;9.27;;;;;20.90;100857.00;;;;2053546;28;20258;-67
2021/11/17 03:24:27;;;;;;;9.90;8.90;;;;;20.90;100857.00;;;;2052358;28;20207;-67
2021/11/17 03:26:00;;;;;;;10.48;9.07;;;;;20.90;100856.00;;;;2052075;28;20590;-67
2021/11/17 03:27:19;;;;;;;10.88;9.77;;;;;20.90;100857.00;;;;2050740;28;20216;-67
2021/11/17 03:28:35;;;;;;;11.07;9.23;;;;;20.90;100859.00;;;;2052224;28;20281;-68
2021/11/17 03:30:00;;;;;;;10.00;8.90;;;;;20.90;100851.00;;;;2051813;28;20218;-68
2021/11/17 03:31:35;;;;;;;10.95;9.52;;;;;20.90;100861.00;;;;2049416;28;20219;-67
2021/11/17 03:33:06;;;;;;;11.57;10.40;;;;;20.90;100850.00;;;;2052011;28;20215;-67
2021/11/17 03:34:22;;;;;;;10.63;9.52;;;;;20.90;100859.00;;;;2053894;28;20626;-67
2021/11/17 03:36:03;;;;;;;10.27;9.27;;;;;20.90;100869.00;;;;2051960;28;20227;-68
2021/11/17 03:37:28;;;;;;;10.80;9.30;;;;;20.90;100862.00;;;;2051674;28;20270;-68
2021/11/17 03:39:22;;;;;;;10.10;8.95;;;;;20.80;100864.00;;;;2054942;28;20211;-68
2021/11/17 03:40:55;;;;;;;11.50;9.75;;;;;20.90;100872.00;;;;2045942;28;20678;-68
2021/11/17 03:42:22;;;;;;;10.88;9.73;;;;;20.90;100867.00;;;;2051956;28;20295;-68
2021/11/17 03:43:41;;;;;;;11.35;10.25;;;;;20.90;100876.00;;;;2044054;29;20593;-68
2021/11/17 03:45:02;;;;;;;10.90;9.80;;;;;20.90;100876.00;;;;2047801;28;20221;-68
2021/11/17 03:46:21;;;;;;;9.82;8.82;;;;;20.90;100874.00;;;;2054494;28;20242;-68
2021/11/17 03:47:24;;;;;;;11.23;10.02;;;;;20.80;100864.00;;;;2054626;28;20362;-68
2021/11/17 03:48:49;;;;;;;10.52;9.43;;;;;20.80;100877.00;;;;2052466;28;20216;-68
2021/11/17 03:49:52;;;;;;;11.50;10.30;;;;;20.80;100869.00;;;;2052243;28;20308;-68
2021/11/17 03:51:14;;;;;;;10.70;9.60;;;;;20.80;100878.00;;;;2052494;28;20267;-67
2021/11/17 03:52:17;;;;;;;10.95;9.85;;;;;20.90;100872.00;;;;2051231;28;20410;-68
2021/11/17 03:53:29;;;;;;;11.35;10.00;;;;;20.90;100868.00;;;;2051666;28;20215;-68
2021/11/17 03:54:51;;;;;;;10.35;9.35;;;;;20.80;100872.00;;;;2051258;28;20679;-68
2021/11/17 03:56:07;;;;;;;11.13;10.02;;;;;20.80;100873.00;;;;2054018;28;20694;-69
2021/11/17 03:57:31;;;;;;;10.77;9.70;;;;;20.80;100868.00;;;;2052555;28;20585;-68
2021/11/17 03:58:47;;;;;;;10.73;9.65;;;;;20.90;100864.00;;;;2050201;28;20769;-68
2021/11/17 04:00:11;;;;;;;11.65;9.82;;;;;20.80;100867.00;;;;2052883;28;20216;-68
2021/11/17 04:01:40;;;;;;;13.27;9.80;;;;;20.80;100868.00;;;;2051143;28;20223;-68
2021/11/17 04:03:05;;;;;;;10.57;9.48;;;;;20.80;100882.00;;;;2051582;28;20593;-68
2021/11/17 04:04:08;;;;;;;11.52;10.32;;;;;20.80;100878.00;;;;2052831;28;20219;-68
2021/11/17 04:05:30;;;;;;;11.57;10.38;;;;;20.80;100876.00;;;;2051829;28;20719;-68
2021/11/17 04:06:45;;;;;;;11.20;9.77;;;;;20.80;100875.00;;;;2053969;28;20215;-68
2021/11/17 04:08:31;;;;;;;10.50;9.40;;;;;20.80;100877.00;;;;2052892;28;20834;-68
2021/11/17 04:09:49;;;;;;;11.13;9.88;;;;;20.80;100873.00;;;;2014735;28;20208;-67
2021/11/17 04:11:29;;;;;;;11.15;10.05;;;;;20.80;100880.00;;;;2051995;28;20370;-67
2021/11/17 04:12:44;;;;;;;12.48;10.45;;;;;20.80;100877.00;;;;2030948;29;20700;-67
2021/11/17 04:14:06;;;;;;;13.75;10.32;;;;;20.80;100878.00;;;;2034138;28;20631;-68
2021/11/17 04:15:30;;;;;;;10.63;9.52;;;;;20.80;100887.00;;;;2051962;28;20215;-68
2021/11/17 04:16:46;;;;;;;11.20;10.00;;;;;20.80;100876.00;;;;2054384;28;20216;-68
2021/11/17 04:17:55;;;;;;;10.90;9.80;;;;;20.70;100879.00;;;;2053631;28;20772;-68
2021/11/17 04:19:02;;;;;;;11.65;10.45;;;;;20.80;100881.00;;;;2051307;28;20246;-68
2021/11/17 04:20:23;;;;;;;11.18;9.98;;;;;20.80;100876.00;;;;2050770;28;20222;-68
2021/11/17 04:21:48;;;;;;;11.90;10.70;;;;;20.80;100879.00;;;;2049065;28;20257;-68
2021/11/17 04:22:48;;;;;;;11.68;9.40;;;;;20.80;100876.00;;;;2051005;28;20741;-68
2021/11/17 04:24:01;;;;;;;10.37;9.27;;;;;20.80;100884.00;;;;2049224;28;20248;-68
2021/11/17 04:25:48;;;;;;;11.13;9.65;;;;;20.70;100883.00;;;;2051817;28;20219;-69
2021/11/17 04:27:00;;;;;;;11.75;10.65;;;;;20.70;100881.00;;;;2034518;28;20212;-72
2021/11/17 04:28:06;;;;;;;11.38;10.20;;;;;20.70;100877.00;;;;2053445;28;20298;-72
2021/11/17 04:29:39;;;;;;;13.02;11.07;;;;;20.70;100880.00;;;;2051897;28;20219;-72
2021/11/17 04:30:51;;;;;;;11.35;10.02;;;;;20.70;100878.00;;;;2055291;28;20698;-72
2021/11/17 04:31:57;;;;;;;12.32;10.35;;;;;20.70;100870.00;;;;2051613;28;20219;-72
2021/11/17 04:33:07;;;;;;;10.82;9.73;;;;;20.70;100872.00;;;;2051821;28;20212;-72
2021/11/17 04:34:32;;;;;;;11.85;10.60;;;;;20.80;100870.00;;;;2052124;28;20220;-72
2021/11/17 04:36:05;;;;;;;11.70;10.15;;;;;20.80;100872.00;;;;2053880;28;20721;-68
2021/11/17 04:37:25;;;;;;;11.20;10.00;;;;;20.70;100891.00;;;;2041301;28;20214;-68
2021/11/17 04:38:49;;;;;;;11.25;10.05;;;;;20.70;100890.00;;;;2054272;28;20215;-68
2021/11/17 04:40:08;;;;;;;11.15;9.90;;;;;20.70;100906.00;;;;2050957;28;20208;-68
2021/11/17 04:41:36;;;;;;;12.10;10.77;;;;;20.70;100914.00;;;;2051152;28;20274;-68
2021/11/17 04:42:49;;;;;;;11.77;10.57;;;;;20.70;100919.00;;;;2051928;28;20262;-67
2021/11/17 04:44:10;;;;;;;10.98;9.75;;;;;20.70;100918.00;;;;2052207;28;20227;-67
2021/11/17 04:45:22;;;;;;;12.30;11.00;;;;;20.70;100920.00;;;;2051314;28;20211;-67
2021/11/17 04:46:40;;;;;;;12.73;10.82;;;;;20.70;100911.00;;;;2051276;28;20215;-69
2021/11/17 04:47:53;;;;;;;11.23;10.07;;;;;20.70;100907.00;;;;2051264;28;20294;-67
2021/11/17 04:49:22;;;;;;;11.75;10.55;;;;;20.70;100915.00;;;;2047938;28;20228;-67
2021/11/17 04:50:25;;;;;;;12.02;10.60;;;;;20.70;100911.00;;;;2051408;28;20212;-67
2021/11/17 04:51:40;;;;;;;11.25;9.98;;;;;20.70;100913.00;;;;2050984;28;20302;-67
2021/11/17 04:53:19;;;;;;;11.63;10.43;;;;;20.70;100912.00;;;;2055472;28;20222;-67
2021/11/17 04:54:28;;;;;;;11.63;10.38;;;;;20.70;100911.00;;;;2050049;28;20212;-67
2021/11/17 04:55:52;;;;;;;12.25;10.95;;;;;20.70;100920.00;;;;2050442;28;20645;-67
2021/11/17 04:57:03;;;;;;;12.05;10.75;;;;;20.70;100918.00;;;;2050774;28;20598;-68
2021/11/17 04:58:22;;;;;;;12.27;10.77;;;;;20.70;100918.00;;;;2048723;28;20220;-67
2021/11/17 04:59:30;;;;;;;11.48;10.27;;;;;20.70;100915.00;;;;2050900;28;20212;-67
2021/11/17 05:00:52;;;;;;;12.23;10.90;;;;;20.60;100917.00;;;;2050598;28;20292;-67
2021/11/17 05:02:32;;;;;;;11.98;10.70;;;;;20.70;100915.00;;;;2047202;28;20258;-67
2021/11/17 05:03:57;;;;;;;12.73;11.43;;;;;20.70;100922.00;;;;2052194;28;20255;-67
2021/11/17 05:05:06;;;;;;;11.15;9.93;;;;;20.70;100904.00;;;;2051114;28;20235;-67
2021/11/17 05:06:30;;;;;;;12.38;11.07;;;;;20.70;100908.00;;;;2050514;28;20264;-67
2021/11/17 05:07:48;;;;;;;11.68;10.02;;;;;20.70;100907.00;;;;2050809;28;20220;-68
2021/11/17 05:09:17;;;;;;;11.20;10.07;;;;;20.60;100905.00;;;;2051028;28;20299;-68
2021/11/17 05:10:33;;;;;;;11.43;9.52;;;;;20.60;100909.00;;;;2051067;28;20847;-68
2021/11/17 05:12:10;;;;;;;12.95;11.48;;;;;20.60;100892.00;;;;2052690;28;20678;-68
2021/11/17 05:13:29;;;;;;;12.43;11.13;;;;;20.60;100885.00;;;;2050339;28;20255;-68
2021/11/17 05:14:54;;;;;;;11.63;10.43;;;;;20.60;100885.00;;;;2050972;28;20215;-68
2021/11/17 05:16:17;;;;;;;12.10;10.65;;;;;20.60;100889.00;;;;2050894;28;20227;-68
2021/11/17 05:17:37;;;;;;;11.10;9.85;;;;;20.60;100890.00;;;;2051114;28;20322;-68
2021/11/17 05:18:43;;;;;;;12.77;11.48;;;;;20.60;100886.00;;;;2053059;28;20303;-68
2021/11/17 05:19:56;;;;;;;11.02;9.93;;;;;20.60;100893.00;;;;2051531;28;20646;-67
2021/11/17 05:21:11;;;;;;;12.15;10.85;;;;;20.60;100890.00;;;;2052909;28;20310;-67
2021/11/17 05:22:35;;;;;;;12.13;10.52;;;;;20.70;100888.00;;;;2051344;28;20712;-68
2021/11/17 05:24:03;;;;;;;12.65;10.05;;;;;20.60;100901.00;;;;2042296;29;20727;-69
2021/11/17 05:25:51;;;;;;;11.95;10.63;;;;;20.60;100886.00;;;;2050785;28;21129;-68
2021/11/17 05:27:10;;;;;;;10.80;9.68;;;;;20.60;100895.00;;;;2037714;29;20209;-68
2021/11/17 05:28:22;;;;;;;12.00;10.52;;;;;20.60;100888.00;;;;2037739;29;20730;-68
2021/11/17 05:29:51;;;;;;;11.48;10.05;;;;;20.60;100883.00;;;;2035311;29;20221;-68
2021/11/17 05:31:06;;;;;;;14.57;11.15;;;;;20.60;100891.00;;;;2038000;29;20304;-68
2021/11/17 05:32:22;;;;;;;11.30;10.18;;;;;20.60;100874.00;;;;2035450;28;20232;-68
2021/11/17 05:34:01;;;;;;;12.38;10.77;;;;;20.60;100881.00;;;;2054153;28;20581;-68
2021/11/17 05:35:04;;;;;;;11.80;10.60;;;;;20.60;100873.00;;;;2049999;28;20259;-69
2021/11/17 05:36:23;;;;;;;12.10;10.80;;;;;20.60;100870.00;;;;2053160;28;20227;-68
2021/11/17 05:37:44;;;;;;;12.63;10.27;;;;;20.60;100862.00;;;;2052194;28;20632;-68
2021/11/17 05:38:47;;;;;;;11.43;9.82;;;;;20.60;100857.00;;;;2050616;28;20258;-68
2021/11/17 05:40:06;;;;;;;14.20;10.95;;;;;20.60;100868.00;;;;2050282;28;20247;-68
2021/11/17 05:42:14;;;;;;;12.60;11.30;;;;;20.60;100885.00;;;;2053047;28;20665;-68
2021/11/17 05:43:33;;;;;;;13.27;10.88;;;;;20.50;100888.00;;;;2017586;29;20269;-68
2021/11/17 05:44:55;;;;;;;13.40;10.30;;;;;20.60;100888.00;;;;2022338;29;21264;-68
2021/11/17 05:46:26;;;;;;;12.07;10.77;;;;;20.60;100875.00;;;;2009684;29;20219;-68
2021/11/17 05:47:58;;;;;;;11.93;10.50;;;;;20.60;100877.00;;;;2021927;29;20213;-68
2021/11/17 05:49:07;;;;;;;12.07;10.45;;;;;20.60;100884.00;;;;2051040;28;20243;-68
2021/11/17 05:50:29;;;;;;;13.32;11.43;;;;;20.60;100878.00;;;;2050220;28;20215;-68
2021/11/17 05:51:50;;;;;;;12.50;10.88;;;;;20.60;100870.00;;;;2050868;28;20207;-68
2021/11/17 05:53:06;;;;;;;12.48;10.55;;;;;20.60;100874.00;;;;2053308;28;20215;-68
2021/11/17 05:54:16;;;;;;;12.30;10.82;;;;;20.50;100870.00;;;;2051173;28;20598;-68
2021/11/17 05:55:19;;;;;;;14.05;11.50;;;;;20.60;100870.00;;;;2050822;28;20215;-68
2021/11/17 05:56:26;;;;;;;12.43;10.57;;;;;20.60;100863.00;;;;2054637;28;20298;-68
2021/11/17 05:57:26;;;;;;;12.60;10.40;;;;;20.60;100870.00;;;;2052392;28;20709;-68
2021/11/17 05:58:41;;;;;;;12.13;10.57;;;;;20.50;100854.00;;;;2051583;28;20221;-68
2021/11/17 06:00:01;;;;;;;13.10;10.88;;;;;20.50;100838.00;;;;2051242;28;20272;-68
2021/11/17 06:01:07;;;;;;;12.48;10.73;;;;;20.50;100837.00;;;;2051072;28;20759;-68
2021/11/17 06:02:48;;;;;;;15.02;11.27;;;;;20.50;100843.00;;;;2052286;28;20242;-68
2021/11/17 06:04:02;;;;;;;11.98;9.85;;;;;20.50;100844.00;;;;2050464;28;20698;-68
2021/11/17 06:05:02;;;;;;;11.52;10.27;;;;;20.60;100844.00;;;;2052592;28;20689;-68
2021/11/17 06:06:02;;;;;;;13.97;11.20;;;;;20.60;100846.00;;;;2053558;28;20211;-68
2021/11/17 06:07:03;;;;;;;13.03;11.40;;;;;20.60;100847.00;;;;2053836;28;20341;-68
2021/11/17 06:08:03;;;;;;;12.70;11.40;;;;;20.60;100850.00;;;;2052623;28;20705;-68
2021/11/17 06:09:06;;;;;;;15.13;10.70;;;;;20.40;100838.00;;;;2051819;28;20208;-68
2021/11/17 06:10:18;;;;;;;11.60;9.90;;;;;20.50;100834.00;;;;2051153;28;20220;-68
2021/11/17 06:11:18;;;;;;;11.05;8.93;;;;;20.60;100837.00;;;;2042349;29;20292;-68
2021/11/17 06:12:18;;;;;;;13.13;8.90;;;;;20.60;100857.00;;;;2026939;29;20684;-70
2021/11/17 06:13:19;;;;;;;12.47;9.30;;;;;20.70;100850.00;;;;2042981;29;20209;-70
2021/11/17 06:14:24;;;;;;;11.17;8.80;;;;;20.80;100850.00;;;;2042889;29;20260;-70
2021/11/17 06:15:25;;;;;;;12.27;9.05;;;;;20.90;100846.00;;;;2036086;28;20739;-70
2021/11/17 06:16:26;;;;;;;18.37;9.10;;;;;20.80;100851.00;;;;2042908;29;20217;-71
2021/11/17 06:17:26;;;;;;;13.03;8.30;;;;;20.90;100848.00;;;;2035143;29;20228;-70
2021/11/17 06:18:28;;;;;;;12.33;9.00;;;;;20.90;100849.00;;;;2034406;29;20225;-71
2021/11/17 06:19:29;;;;;;;12.52;7.90;;;;;20.90;100844.00;;;;2042641;29;20216;-71
2021/11/17 06:20:30;;;;;;;9.38;8.48;;;;;20.90;100843.00;;;;2042453;29;20618;-71
2021/11/17 06:21:31;;;;;;;15.70;8.57;;;;;21.00;100847.00;;;;2042570;29;20208;-71
2021/11/17 06:22:31;;;;;;;9.23;7.83;;;;;21.00;100835.00;;;;2026769;29;20297;-71
2021/11/17 06:23:53;;;;;;;10.70;7.80;;;;;21.00;100851.00;;;;2034620;29;20525;-71
2021/11/17 06:24:53;;;;;;;10.30;8.23;;;;;21.00;100847.00;;;;2040004;28;20247;-71
2021/11/17 06:25:54;;;;;;;10.60;7.57;;;;;21.00;100848.00;;;;2046398;29;20252;-71
2021/11/17 06:26:55;;;;;;;12.10;7.27;;;;;21.00;100856.00;;;;2046819;28;20311;-70
2021/11/17 06:27:59;;;;;;;9.33;7.37;;;;;21.00;100851.00;;;;2042474;29;20460;-71
2021/11/17 06:29:05;;;;;;;8.27;7.05;;;;;21.10;100851.00;;;;2035353;29;20229;-69
2021/11/17 06:30:06;;;;;;;8.55;6.53;;;;;21.00;100851.00;;;;2037749;28;20217;-68
2021/11/17 06:31:06;;;;;;;8.88;6.30;;;;;21.10;100854.00;;;;2043529;28;20226;-70
2021/11/17 06:32:07;;;;;;;8.33;6.70;;;;;21.10;100844.00;;;;2034793;29;20241;-69
2021/11/17 06:33:08;;;;;;;7.10;6.13;;;;;21.10;100852.00;;;;2043063;29;20213;-69
2021/11/17 06:34:34;;;;;;;7.40;6.20;;;;;21.10;100862.00;;;;2035096;29;20222;-69
2021/11/17 06:35:36;;;;;;;8.75;7.47;;;;;21.10;100859.00;;;;2048299;28;20220;-69
2021/11/17 06:36:36;;;;;;;8.63;7.18;;;;;21.10;100863.00;;;;2042849;29;20592;-69
2021/11/17 06:37:37;;;;;;;8.10;6.63;;;;;21.10;100847.00;;;;2043073;28;20222;-69
2021/11/17 06:38:37;;;;;;;7.33;6.43;;;;;21.10;100867.00;;;;2050222;28;20224;-69
2021/11/17 06:39:40;;;;;;;8.00;7.20;;;;;21.10;100865.00;;;;2051068;28;20208;-69
2021/11/17 06:40:41;;;;;;;7.65;6.45;;;;;21.10;100854.00;;;;2051898;28;20251;-70
2021/11/17 06:41:41;;;;;;;7.30;6.50;;;;;21.10;100860.00;;;;2047362;29;20642;-70
2021/11/17 06:42:47;;;;;;;7.47;6.73;;;;;21.10;100865.00;;;;2039701;29;20221;-70
2021/11/17 06:43:47;;;;;;;7.43;5.95;;;;;21.10;100849.00;;;;2052296;28;20314;-69
2021/11/17 06:44:47;;;;;;;8.27;7.43;;;;;21.20;100860.00;;;;2053841;28;20571;-70
2021/11/17 06:45:55;;;;;;;7.53;5.97;;;;;21.20;100857.00;;;;2051983;28;20587;-69
2021/11/17 06:46:55;;;;;;;7.85;6.40;;;;;21.20;100856.00;;;;2039912;29;20582;-70
2021/11/17 06:47:55;;;;;;;6.83;6.23;;;;;21.20;100856.00;;;;2039390;29;20228;-69
2021/11/17 06:48:56;;;;;;;6.90;6.20;;;;;21.20;100861.00;;;;2051688;28;20216;-69
2021/11/17 06:49:56;;;;;;;7.70;6.90;;;;;21.20;100856.00;;;;2052239;28;20220;-70
2021/11/17 06:50:57;;;;;;;7.60;6.47;;;;;21.20;100857.00;;;;2051696;28;20216;-70
2021/11/17 06:51:57;;;;;;;7.70;6.90;;;;;21.20;100867.00;;;;2036125;29;20244;-70
2021/11/17 06:52:58;;;;;;;9.63;7.60;;;;;21.20;100866.00;;;;2044285;29;20239;-70
2021/11/17 06:53:58;;;;;;;7.60;6.80;;;;;21.20;100866.00;;;;2052817;28;20212;-69
2021/11/17 06:54:58;;;;;;;9.47;8.57;;;;;21.20;100862.00;;;;2051530;28;20223;-70
2021/11/17 06:55:59;;;;;;;9.47;8.50;;;;;21.20;100867.00;;;;2051339;28;20223;-69
2021/11/17 06:56:59;;;;;;;12.20;10.20;;;;;21.20;100862.00;;;;2052336;28;20211;-69
2021/11/17 06:57:59;;;;;;;13.03;11.00;;;;;21.20;100855.00;;;;2051568;28;20237;-70
2021/11/17 06:59:00;;;;;;;15.33;13.10;;;;;21.20;100850.00;;;;2051683;28;20219;-70
2021/11/17 07:00:01;;;;;;;21.50;17.13;;;;;21.20;100853.00;;;;2052100;28;20213;-70
2021/11/17 07:01:01;;;;;;;21.50;18.87;;;;;21.30;100851.00;;;;2051581;28;20236;-69
2021/11/17 07:02:05;;;;;;;31.50;23.80;;;;;21.30;100855.00;;;;2051705;28;20645;-69
2021/11/17 07:03:05;;;;;;;38.30;30.13;;;;;21.20;100853.00;;;;2044067;29;20257;-69
2021/11/17 07:04:06;;;;;;;28.70;23.60;;;;;21.30;100848.00;;;;2036080;29;20732;-70
2021/11/17 07:05:07;;;;;;;45.07;34.43;;;;;21.30;100855.00;;;;2044054;28;20213;-69
2021/11/17 07:06:07;;;;;;;44.10;36.03;;;;;21.30;100844.00;;;;2036050;29;20461;-69
2021/11/17 07:07:09;;;;;;;54.50;42.53;;;;;21.30;100846.00;;;;2035905;28;20452;-69
2021/11/17 07:08:09;;;;;;;59.13;45.80;;;;;21.30;100848.00;;;;2044415;28;20209;-70
2021/11/17 07:09:09;;;;;;;58.53;46.27;;;;;21.30;100844.00;;;;2044217;29;20220;-70
2021/11/17 07:10:12;;;;;;;60.30;46.10;;;;;21.30;100837.00;;;;2055754;28;20242;-70
2021/11/17 07:11:12;;;;;;;45.35;35.40;;;;;21.30;100834.00;;;;2055100;28;20741;-70
2021/11/17 07:12:12;;;;;;;51.93;40.10;;;;;21.30;100831.00;;;;2055474;28;20208;-70
2021/11/17 07:13:13;;;;;;;58.47;45.77;;;;;21.30;100844.00;;;;2055841;28;20406;-70
2021/11/17 07:14:13;;;;;;;36.63;30.03;;;;;21.30;100835.00;;;;2052962;28;20211;-70
2021/11/17 07:15:14;;;;;;;44.00;34.40;;;;;21.30;100835.00;;;;2052956;28;20262;-70
2021/11/17 07:16:14;;;;;;;67.20;51.23;;;;;21.30;100839.00;;;;2043973;29;20231;-70
2021/11/17 07:17:15;;;;;;;52.47;40.77;;;;;21.30;100850.00;;;;2036104;29;20214;-70
2021/11/17 07:18:15;;;;;;;50.57;41.00;;;;;21.30;100844.00;;;;2051279;28;22363;-70
2021/11/17 07:19:16;;;;;;;73.13;56.47;;;;;21.30;100847.00;;;;2043816;29;21162;-70
2021/11/17 07:20:17;;;;;;;63.47;51.87;;;;;21.40;100848.00;;;;2028185;29;20252;-70
2021/11/17 07:21:17;;;;;;;68.60;54.10;;;;;21.40;100850.00;;;;2035814;29;20221;-70
2021/11/17 07:22:18;;;;;;;80.17;60.93;;;;;21.40;100849.00;;;;2051435;28;20546;-70
2021/11/17 07:23:18;;;;;;;63.90;52.83;;;;;21.40;100846.00;;;;2052074;28;20216;-71
2021/11/17 07:24:18;;;;;;;70.50;54.83;;;;;21.40;100844.00;;;;2043602;29;20250;-70
2021/11/17 07:25:20;;;;;;;67.50;53.77;;;;;21.30;100848.00;;;;2043379;29;20219;-70
2021/11/17 07:26:20;;;;;;;75.20;57.97;;;;;21.40;100850.00;;;;2042964;29;20228;-70
2021/11/17 07:27:23;;;;;;;59.60;48.50;;;;;21.40;100847.00;;;;2043970;28;20719;-69
2021/11/17 07:28:24;;;;;;;71.68;57.25;;;;;21.40;100855.00;;;;2052609;28;20235;-70
2021/11/17 07:29:24;;;;;;;59.77;48.17;;;;;21.40;100855.00;;;;2051762;28;20714;-71
2021/11/17 07:30:27;;;;;;;86.97;64.73;;;;;21.40;100858.00;;;;2042551;28;20216;-70
2021/11/17 07:31:27;;;;;;;68.63;50.42;;;;;21.40;100861.00;;;;2051892;28;20259;-70
2021/11/17 07:32:28;;;;;;;71.20;54.63;;;;;21.40;100858.00;;;;2051487;28;20487;-70
2021/11/17 07:33:28;;;;;;;77.77;62.47;;;;;21.40;100872.00;;;;2051678;28;20208;-70
2021/11/17 07:34:29;;;;;;;82.97;64.17;;;;;21.50;100867.00;;;;2054559;28;20223;-70
2021/11/17 07:35:34;;;;;;;78.80;60.73;;;;;21.40;100870.00;;;;2050685;28;20227;-70
2021/11/17 07:36:34;;;;;;;90.45;68.45;;;;;21.40;100880.00;;;;2035918;29;20217;-71
2021/11/17 07:37:35;;;;;;;71.93;57.50;;;;;21.40;100876.00;;;;2043241;29;20221;-71
2021/11/17 07:38:35;;;;;;;68.40;54.77;;;;;21.50;100884.00;;;;2050459;28;20594;-71
2021/11/17 07:39:36;;;;;;;105.77;77.67;;;;;21.50;100892.00;;;;2050806;28;21086;-71
2021/11/17 07:40:37;;;;;;;111.80;81.03;;;;;21.40;100882.00;;;;2051907;28;20215;-71
2021/11/17 07:41:38;;;;;;;102.88;78.47;;;;;21.50;100896.00;;;;2051411;28;20227;-71
2021/11/17 07:42:38;;;;;;;119.33;87.63;;;;;21.50;100897.00;;;;2051366;28;20219;-71
2021/11/17 07:43:39;;;;;;;112.33;86.23;;;;;21.50;100881.00;;;;2051970;28;20702;-70
2021/11/17 07:44:41;;;;;;;114.77;84.23;;;;;21.50;100901.00;;;;2051324;28;20224;-70
2021/11/17 07:45:41;;;;;;;115.43;85.80;;;;;21.50;100895.00;;;;2043757;28;20304;-71
2021/11/17 07:46:45;;;;;;;106.47;79.97;;;;;21.50;100892.00;;;;2051724;28;20264;-71
2021/11/17 07:47:46;;;;;;;132.25;92.97;;;;;21.50;100888.00;;;;2048835;28;20227;-70
2021/11/17 07:48:46;;;;;;;122.40;91.70;;;;;21.50;100888.00;;;;2051737;28;20211;-70
2021/11/17 07:49:46;;;;;;;119.73;89.00;;;;;21.50;100897.00;;;;2051836;28;20215;-71
2021/11/17 07:50:47;;;;;;;108.73;81.97;;;;;21.50;100895.00;;;;2042473;28;20212;-70
2021/11/17 07:51:47;;;;;;;117.97;89.13;;;;;21.50;100890.00;;;;2054675;28;20278;-70
2021/11/17 07:52:47;;;;;;;126.93;93.50;;;;;21.50;100894.00;;;;2047633;28;20381;-70
2021/11/17 07:53:48;;;;;;;118.20;86.63;;;;;21.50;100895.00;;;;2047509;29;20220;-70
2021/11/17 07:54:48;;;;;;;115.93;85.30;;;;;21.50;100902.00;;;;2051735;28;20211;-70
2021/11/17 07:55:50;;;;;;;120.93;90.43;;;;;21.50;100902.00;;;;2051345;28;20223;-70
2021/11/17 07:56:50;;;;;;;132.93;98.53;;;;;21.50;100905.00;;;;2043659;29;20223;-70
2021/11/17 07:57:51;;;;;;;111.40;85.00;;;;;21.60;100909.00;;;;2043239;29;20216;-70
2021/11/17 07:58:52;;;;;;;109.63;84.80;;;;;21.60;100910.00;;;;2039471;29;20232;-70
2021/11/17 07:59:52;;;;;;;125.80;95.97;;;;;21.60;100916.00;;;;2036748;29;20264;-70
2021/11/17 08:00:55;;;;;;;110.97;84.10;;;;;21.60;100917.00;;;;2035125;29;20250;-70
2021/11/17 08:01:57;;;;;;;111.03;84.93;;;;;21.60;100911.00;;;;2028029;29;20244;-70
2021/11/17 08:02:57;;;;;;;123.50;90.50;;;;;21.60;100919.00;;;;2028139;29;20297;-70
2021/11/17 08:03:57;;;;;;;110.80;83.50;;;;;21.60;100920.00;;;;2035988;29;20233;-70
2021/11/17 08:04:58;;;;;;;110.70;85.40;;;;;21.60;100924.00;;;;2051423;28;20220;-70
2021/11/17 08:05:58;;;;;;;123.13;87.90;;;;;21.60;100925.00;;;;2052367;28;20672;-70
2021/11/17 08:06:58;;;;;;;116.47;86.93;;;;;21.60;100918.00;;;;2043704;29;20220;-70
2021/11/17 08:07:59;;;;;;;113.17;85.43;;;;;21.60;100924.00;;;;2043752;29;20275;-70
2021/11/17 08:08:59;;;;;;;115.27;85.90;;;;;21.60;100923.00;;;;2052272;28;20230;-71
2021/11/17 08:10:00;;;;;;;110.23;84.80;;;;;21.60;100916.00;;;;2050843;28;20219;-71
2021/11/17 08:11:01;;;;;;;128.43;92.97;;;;;21.60;100919.00;;;;2043119;29;20227;-71
2021/11/17 08:12:02;;;;;;;110.15;85.95;;;;;21.60;100915.00;;;;2051138;28;20215;-71
2021/11/17 08:13:02;;;;;;;113.50;83.83;;;;;21.60;100915.00;;;;2051056;28;20780;-71